KPHX/PHX METAR and TAF weather

Enter ICAO airport designator
Station Type Date Time Source
KPHX METAR 2021/09/23 17:51 UTC NOAA

KPHX 231751Z 16008KT 10SM FEW120 FEW180 FEW250 33/13 A2992 RMK AO2 SLP112 T03330128 10333 20256 50003


Station Type Date Time Source
KPHX Decoded METAR 2021/09/23 17:51 UTC NOAA

Phoenix, Phoenix Sky Harbor International Airport, AZ, United States (KPHX) 33-26-03N 112-03-04W 336M
Sep 23, 2021 - 01:51 PM EDT / 2021.09.23 1751 UTC
Wind: from the SSE (160 degrees) at 9 MPH (8 KT):0
Visibility: 10 mile(s):0
Sky conditions: mostly clear
Temperature: 91.9 F (33.3 C)
Dew Point: 55.0 F (12.8 C)
Relative Humidity: 28%
Pressure (altimeter): 29.92 in. Hg (1013 hPa)
Pressure tendency: 0.01 inches (0.3 hPa) higher than three hours ago
ob: KPHX 231751Z 16008KT 10SM FEW120 FEW180 FEW250 33/13 A2992 RMK AO2 SLP112 T03330128 10333 20256 50003
cycle: 18

Station Type Date Time Source
KPHX TAF 2021/09/23 18:40 UTC NOAA

TAF KPHX 231738Z 2318/2424 17007KT P6SM FEW120 FEW180 FEW250
FM231900 22009KT P6SM FEW120 SCT180 SCT250
FM240100 17010KT P6SM SCT120 SCT200 BKN250
FM240400 13006KT P6SM SCT120 BKN200
FM241800 25008KT P6SM SCT120 BKN200

Example: see airport list